createdAt,value
2017-01-23T00:00:56.035Z,0
2017-01-23T00:01:56.852Z,0
2017-01-23T00:02:56.847Z,0
2017-01-23T00:03:56.863Z,0
2017-01-23T00:04:57.255Z,0
2017-01-23T00:05:56.847Z,0
2017-01-23T00:06:57.247Z,0
2017-01-23T00:07:56.019Z,0
2017-01-23T00:08:56.831Z,0
2017-01-23T00:09:56.003Z,0
2017-01-23T00:10:55.584Z,0
2017-01-23T00:11:56.836Z,0
2017-01-23T00:12:56.396Z,0
2017-01-23T00:13:56.815Z,0
2017-01-23T00:14:56.403Z,0
2017-01-23T00:15:56.403Z,0
2017-01-23T00:16:56.387Z,0
2017-01-23T00:17:56.388Z,0
2017-01-23T00:18:57.200Z,0
2017-01-23T00:19:56.824Z,0
2017-01-23T00:20:56.799Z,0
2017-01-23T00:21:57.216Z,0
2017-01-23T00:22:56.785Z,0
2017-01-23T00:23:56.368Z,0
2017-01-23T00:24:56.396Z,0
2017-01-23T00:25:56.770Z,0
2017-01-23T00:26:56.344Z,0
2017-01-23T00:27:56.348Z,0
2017-01-23T00:28:56.348Z,0
2017-01-23T00:29:56.349Z,0
2017-01-23T00:30:55.523Z,0
2017-01-23T00:31:57.156Z,0
2017-01-23T00:32:57.148Z,0
2017-01-23T00:33:56.341Z,0
2017-01-23T00:34:56.320Z,0
2017-01-23T00:35:56.725Z,0
2017-01-23T00:36:56.724Z,0
2017-01-23T00:37:56.752Z,0
2017-01-23T00:38:56.719Z,0
2017-01-23T00:39:56.713Z,0
2017-01-23T00:40:56.304Z,0
2017-01-23T00:41:56.741Z,0
2017-01-23T00:42:56.700Z,0
2017-01-23T00:43:56.696Z,0
2017-01-23T00:44:56.284Z,0
2017-01-23T00:45:56.673Z,0
2017-01-23T00:46:55.863Z,0
2017-01-23T00:47:57.088Z,0
2017-01-23T00:48:56.255Z,0
2017-01-23T00:49:57.091Z,0
2017-01-23T00:50:56.263Z,0
2017-01-23T00:51:56.663Z,0
2017-01-23T00:52:57.075Z,0
2017-01-23T00:53:56.250Z,0
2017-01-23T00:54:55.855Z,0
2017-01-23T00:55:57.061Z,0
2017-01-23T00:56:56.234Z,0
2017-01-23T00:57:55.825Z,0
2017-01-23T00:58:57.038Z,0
2017-01-23T00:59:56.218Z,0
2017-01-23T01:00:56.218Z,0
2017-01-23T01:01:56.213Z,0
2017-01-23T01:02:56.208Z,0
2017-01-23T01:03:56.209Z,0
2017-01-23T01:04:56.610Z,0
2017-01-23T01:05:57.053Z,0
2017-01-23T01:06:56.196Z,0
2017-01-23T01:07:56.600Z,0
2017-01-23T01:08:57.008Z,0
2017-01-23T01:09:56.616Z,0
2017-01-23T01:10:56.585Z,0
2017-01-23T01:11:56.583Z,0
2017-01-23T01:12:56.594Z,0
2017-01-23T01:13:56.164Z,0
2017-01-23T01:14:56.624Z,0
2017-01-23T01:15:56.155Z,0
2017-01-23T01:16:56.977Z,0
2017-01-23T01:17:55.743Z,0
2017-01-23T01:18:56.557Z,0
2017-01-23T01:19:56.540Z,0
2017-01-23T01:20:56.960Z,0
2017-01-23T01:21:56.548Z,0
2017-01-23T01:22:55.723Z,0
2017-01-23T01:23:56.123Z,0
2017-01-23T01:24:56.120Z,0
2017-01-23T01:25:56.524Z,0
2017-01-23T01:26:56.108Z,0
2017-01-23T01:27:56.529Z,0
2017-01-23T01:28:55.699Z,0
2017-01-23T01:29:56.100Z,0
2017-01-23T01:30:56.536Z,0
2017-01-23T01:31:55.680Z,0
2017-01-23T01:32:56.496Z,0
2017-01-23T01:33:56.088Z,0
2017-01-23T01:34:56.496Z,0
2017-01-23T01:35:56.487Z,0
2017-01-23T01:36:55.660Z,0
2017-01-23T01:37:56.488Z,0
2017-01-23T01:38:56.476Z,0
2017-01-23T01:39:56.476Z,0
2017-01-23T01:40:56.457Z,0
2017-01-23T01:41:56.476Z,0
2017-01-23T01:42:56.875Z,0
2017-01-23T01:43:55.634Z,0
2017-01-23T01:44:55.629Z,0
2017-01-23T01:45:56.040Z,0
2017-01-23T01:46:56.454Z,0
2017-01-23T01:47:56.445Z,0
2017-01-23T01:48:56.441Z,0
2017-01-23T01:49:56.443Z,0
2017-01-23T01:50:56.865Z,0
2017-01-23T01:51:56.013Z,0
2017-01-23T01:52:56.421Z,0
2017-01-23T01:53:56.417Z,0
2017-01-23T01:54:55.994Z,0
2017-01-23T01:55:56.833Z,0
2017-01-23T01:56:56.405Z,0
2017-01-23T01:57:56.402Z,0
2017-01-23T01:58:56.809Z,0
2017-01-23T01:59:55.580Z,0
2017-01-23T02:00:55.977Z,0
2017-01-23T02:01:55.561Z,0
2017-01-23T02:02:56.376Z,0
2017-01-23T02:03:55.961Z,0
2017-01-23T02:04:55.952Z,0
2017-01-23T02:05:56.788Z,0
2017-01-23T02:06:55.125Z,0
2017-01-23T02:07:55.540Z,0
2017-01-23T02:08:56.360Z,0
2017-01-23T02:09:56.361Z,0
2017-01-23T02:10:56.360Z,0
2017-01-23T02:11:55.928Z,0
2017-01-23T02:12:56.339Z,0
2017-01-23T02:13:56.335Z,0
2017-01-23T02:14:56.332Z,0
2017-01-23T02:15:56.333Z,0
2017-01-23T02:16:56.323Z,0
2017-01-23T02:17:55.500Z,0
2017-01-23T02:18:56.332Z,0
2017-01-23T02:19:56.316Z,0
2017-01-23T02:20:55.901Z,0
2017-01-23T02:21:55.895Z,0
2017-01-23T02:22:56.304Z,0
2017-01-23T02:23:56.712Z,0
2017-01-23T02:24:55.884Z,0
2017-01-23T02:25:55.880Z,0
2017-01-23T02:26:55.492Z,0
2017-01-23T02:27:55.464Z,0
2017-01-23T02:28:55.864Z,0
2017-01-23T02:29:55.864Z,0
2017-01-23T02:30:56.688Z,0
2017-01-23T02:31:56.273Z,0
2017-01-23T02:32:56.700Z,0
2017-01-23T02:33:56.264Z,0
2017-01-23T02:34:55.444Z,0
2017-01-23T02:35:55.836Z,0
2017-01-23T02:36:56.268Z,0
2017-01-23T02:37:56.245Z,0
2017-01-23T02:38:56.655Z,0
2017-01-23T02:39:56.236Z,0
2017-01-23T02:40:55.828Z,0
2017-01-23T02:41:55.409Z,0
2017-01-23T02:42:55.813Z,0
2017-01-23T02:43:55.825Z,0
2017-01-23T02:44:55.804Z,0
2017-01-23T02:45:55.800Z,0
2017-01-23T02:46:56.208Z,0
2017-01-23T02:47:55.789Z,0
2017-01-23T02:48:56.205Z,0
2017-01-23T02:49:55.785Z,0
2017-01-23T02:50:56.605Z,0
2017-01-23T02:51:56.193Z,0
2017-01-23T02:52:56.189Z,0
2017-01-23T02:53:56.589Z,0
2017-01-23T02:54:56.590Z,0
2017-01-23T02:55:56.589Z,0
2017-01-23T02:56:55.750Z,0
2017-01-23T02:57:56.174Z,0
2017-01-23T02:58:56.573Z,0
2017-01-23T02:59:56.579Z,0
2017-01-23T03:00:55.746Z,0
2017-01-23T03:01:56.150Z,0
2017-01-23T03:02:56.562Z,0
2017-01-23T03:03:56.551Z,0
2017-01-23T03:04:56.551Z,0
2017-01-23T03:05:56.551Z,0
2017-01-23T03:06:56.530Z,0
2017-01-23T03:07:56.122Z,0
2017-01-23T03:08:56.123Z,0
2017-01-23T03:09:56.531Z,0
2017-01-23T03:10:56.523Z,0
2017-01-23T03:11:55.696Z,0
2017-01-23T03:12:55.695Z,0
2017-01-23T03:13:55.704Z,0
2017-01-23T03:14:56.511Z,0
2017-01-23T03:15:56.094Z,0
2017-01-23T03:16:55.675Z,0
2017-01-23T03:17:56.115Z,0
2017-01-23T03:18:56.092Z,0
2017-01-23T03:19:56.087Z,0
2017-01-23T03:20:55.672Z,0
2017-01-23T03:21:56.480Z,0
2017-01-23T03:22:56.480Z,0
2017-01-23T03:23:55.645Z,0
2017-01-23T03:24:55.652Z,0
2017-01-23T03:25:55.237Z,0
2017-01-23T03:26:56.062Z,0
2017-01-23T03:27:56.046Z,0
2017-01-23T03:28:55.633Z,0
2017-01-23T03:29:56.458Z,0
2017-01-23T03:30:55.625Z,0
2017-01-23T03:31:55.630Z,0
2017-01-23T03:32:55.622Z,0
2017-01-23T03:33:56.017Z,0
2017-01-23T03:34:56.018Z,0
2017-01-23T03:35:56.019Z,0
2017-01-23T03:36:56.018Z,0
2017-01-23T03:37:55.595Z,0
2017-01-23T03:38:55.990Z,0
2017-01-23T03:39:56.407Z,0
2017-01-23T03:40:55.595Z,0
2017-01-23T03:41:55.587Z,0
2017-01-23T03:42:56.391Z,0
2017-01-23T03:43:55.987Z,0
2017-01-23T03:44:55.567Z,0
2017-01-23T03:45:56.384Z,0
2017-01-23T03:46:55.993Z,0
2017-01-23T03:47:55.973Z,0
2017-01-23T03:48:56.384Z,0
2017-01-23T03:49:55.952Z,0
2017-01-23T03:50:55.541Z,0
2017-01-23T03:51:56.368Z,0
2017-01-23T03:52:56.373Z,0
2017-01-23T03:53:55.540Z,0
2017-01-23T03:54:56.356Z,0
2017-01-23T03:55:55.948Z,0
2017-01-23T03:56:55.945Z,0
2017-01-23T03:57:55.109Z,0
2017-01-23T03:58:55.933Z,0
2017-01-23T03:59:55.924Z,0
2017-01-23T04:00:55.925Z,0
2017-01-23T04:01:55.913Z,0
2017-01-23T04:02:54.681Z,0
2017-01-23T04:03:55.910Z,0
2017-01-23T04:04:55.909Z,0
2017-01-23T04:05:55.898Z,0
2017-01-23T04:06:55.898Z,0
2017-01-23T04:07:55.890Z,0
2017-01-23T04:08:56.302Z,0
2017-01-23T04:09:56.293Z,0
2017-01-23T04:10:56.285Z,0
2017-01-23T04:11:55.898Z,0
2017-01-23T04:12:55.878Z,0
2017-01-23T04:13:55.876Z,0
2017-01-23T04:14:55.867Z,0
2017-01-23T04:15:54.619Z,0
2017-01-23T04:16:55.850Z,0
2017-01-23T04:17:55.875Z,0
2017-01-23T04:18:55.847Z,0
2017-01-23T04:19:55.459Z,0
2017-01-23T04:20:55.427Z,0
2017-01-23T04:21:55.835Z,0
2017-01-23T04:22:55.419Z,0
2017-01-23T04:23:56.243Z,0
2017-01-23T04:24:55.828Z,0
2017-01-23T04:25:55.843Z,0
2017-01-23T04:26:56.227Z,0
2017-01-23T04:27:56.220Z,0
2017-01-23T04:28:55.395Z,0
2017-01-23T04:29:55.815Z,0
2017-01-23T04:30:55.792Z,0
2017-01-23T04:31:55.800Z,0
2017-01-23T04:32:55.788Z,0
2017-01-23T04:33:54.956Z,0
2017-01-23T04:34:55.788Z,0
2017-01-23T04:35:55.371Z,0
2017-01-23T04:36:55.772Z,0
2017-01-23T04:37:55.384Z,0
2017-01-23T04:38:55.356Z,0
2017-01-23T04:39:55.361Z,0
2017-01-23T04:40:55.816Z,0
2017-01-23T04:41:54.929Z,0
2017-01-23T04:42:55.756Z,0
2017-01-23T04:43:55.369Z,0
2017-01-23T04:44:55.741Z,0
2017-01-23T04:45:55.325Z,0
2017-01-23T04:46:55.741Z,0
2017-01-23T04:47:55.729Z,0
2017-01-23T04:48:55.729Z,0
2017-01-23T04:49:55.734Z,0
2017-01-23T04:50:55.305Z,0
2017-01-23T04:51:55.717Z,0
2017-01-23T04:52:55.305Z,0
2017-01-23T04:53:55.297Z,0
2017-01-23T04:54:56.149Z,0
2017-01-23T04:55:56.113Z,0
2017-01-23T04:56:55.285Z,0
2017-01-23T04:57:56.110Z,0
2017-01-23T04:58:55.281Z,0
2017-01-23T04:59:55.270Z,0
2017-01-23T05:00:56.094Z,0
2017-01-23T05:01:54.862Z,0
2017-01-23T05:02:55.673Z,0
2017-01-23T05:03:56.082Z,0
2017-01-23T05:04:55.693Z,0
2017-01-23T05:05:55.285Z,0
2017-01-23T05:06:55.658Z,0
2017-01-23T05:07:55.249Z,0
2017-01-23T05:08:55.230Z,0
2017-01-23T05:09:55.642Z,0
2017-01-23T05:10:56.043Z,0
2017-01-23T05:11:55.242Z,0
2017-01-23T05:12:55.634Z,0
2017-01-23T05:13:56.041Z,0
2017-01-23T05:14:55.214Z,0
2017-01-23T05:15:55.207Z,0
2017-01-23T05:16:55.618Z,0
2017-01-23T05:17:55.199Z,0
2017-01-23T05:18:56.050Z,0
2017-01-23T05:19:56.015Z,0
2017-01-23T05:20:55.603Z,0
2017-01-23T05:21:55.206Z,0
2017-01-23T05:22:55.187Z,0
2017-01-23T05:23:55.186Z,0
2017-01-23T05:24:56.023Z,0
2017-01-23T05:25:55.167Z,0
2017-01-23T05:26:55.572Z,0
2017-01-23T05:27:55.983Z,0
2017-01-23T05:28:55.182Z,0
2017-01-23T05:29:55.983Z,0
2017-01-23T05:30:55.559Z,0
2017-01-23T05:31:55.143Z,0
2017-01-23T05:32:55.147Z,0
2017-01-23T05:33:55.140Z,0
2017-01-23T05:34:55.963Z,0
2017-01-23T05:35:55.959Z,0
2017-01-23T05:36:55.538Z,0
2017-01-23T05:37:55.532Z,0
2017-01-23T05:38:55.107Z,0
2017-01-23T05:39:55.107Z,0
2017-01-23T05:40:55.936Z,0
2017-01-23T05:41:55.100Z,0
2017-01-23T05:42:55.100Z,0
2017-01-23T05:43:55.092Z,0
2017-01-23T05:44:55.087Z,0
2017-01-23T05:45:55.500Z,0
2017-01-23T05:46:55.908Z,0
2017-01-23T05:47:55.896Z,0
2017-01-23T05:48:55.080Z,0
2017-01-23T05:49:55.480Z,0
2017-01-23T05:50:55.069Z,0
2017-01-23T05:51:55.072Z,0
2017-01-23T05:52:55.092Z,0
2017-01-23T05:53:55.464Z,0
2017-01-23T05:54:55.456Z,0
2017-01-23T05:55:55.074Z,0
2017-01-23T05:56:55.037Z,0
2017-01-23T05:57:55.045Z,0
2017-01-23T05:58:55.446Z,0
2017-01-23T05:59:55.441Z,0
2017-01-23T06:00:55.440Z,0
2017-01-23T06:01:55.845Z,0
2017-01-23T06:02:55.433Z,0
2017-01-23T06:03:55.428Z,0
2017-01-23T06:04:55.012Z,0
2017-01-23T06:05:55.005Z,0
2017-01-23T06:06:54.997Z,0
2017-01-23T06:07:55.812Z,0
2017-01-23T06:08:55.812Z,0
2017-01-23T06:09:54.997Z,0
2017-01-23T06:10:55.809Z,0
2017-01-23T06:11:54.572Z,0
2017-01-23T06:12:55.804Z,0
2017-01-23T06:13:55.793Z,0
2017-01-23T06:14:55.377Z,0
2017-01-23T06:15:55.374Z,0
2017-01-23T06:16:55.373Z,0
2017-01-23T06:17:55.365Z,0
2017-01-23T06:18:55.365Z,0
2017-01-23T06:19:55.772Z,0
2017-01-23T06:20:54.946Z,0
2017-01-23T06:21:54.942Z,0
2017-01-23T06:22:55.353Z,0
2017-01-23T06:23:54.521Z,0
2017-01-23T06:24:54.925Z,0
2017-01-23T06:25:55.349Z,0
2017-01-23T06:26:55.336Z,0
2017-01-23T06:27:55.333Z,0
2017-01-23T06:28:55.322Z,0
2017-01-23T06:29:55.322Z,0
2017-01-23T06:30:54.905Z,0
2017-01-23T06:31:55.725Z,0
2017-01-23T06:32:54.905Z,0
2017-01-23T06:33:55.301Z,0
2017-01-23T06:34:55.298Z,0
2017-01-23T06:35:55.305Z,0
2017-01-23T06:36:54.881Z,0
2017-01-23T06:37:54.881Z,0
2017-01-23T06:38:55.690Z,0
2017-01-23T06:39:55.273Z,0
2017-01-23T06:40:55.681Z,0
2017-01-23T06:41:55.678Z,0
2017-01-23T06:42:55.257Z,0
2017-01-23T06:43:55.262Z,0
2017-01-23T06:44:55.257Z,0
2017-01-23T06:45:55.661Z,0
2017-01-23T06:46:55.670Z,0
2017-01-23T06:47:55.252Z,0
2017-01-23T06:48:55.241Z,0
2017-01-23T06:49:54.419Z,0
2017-01-23T06:50:55.637Z,0
2017-01-23T06:51:54.406Z,0
2017-01-23T06:52:55.221Z,0
2017-01-23T06:53:55.218Z,0
2017-01-23T06:54:55.246Z,0
2017-01-23T06:55:54.813Z,0
2017-01-23T06:56:54.790Z,0
2017-01-23T06:57:55.210Z,0
2017-01-23T06:58:54.793Z,0
2017-01-23T06:59:55.202Z,0
2017-01-23T07:00:54.776Z,0
2017-01-23T07:01:55.214Z,0
2017-01-23T07:02:55.182Z,0
2017-01-23T07:03:55.595Z,0
2017-01-23T07:04:55.186Z,0
2017-01-23T07:05:54.755Z,0
2017-01-23T07:06:55.590Z,0
2017-01-23T07:07:55.166Z,0
2017-01-23T07:08:55.165Z,0
2017-01-23T07:09:55.170Z,0
2017-01-23T07:10:55.159Z,0
2017-01-23T07:11:55.142Z,0
2017-01-23T07:12:54.726Z,0
2017-01-23T07:13:54.719Z,0
2017-01-23T07:14:55.134Z,0
2017-01-23T07:15:55.138Z,0
2017-01-23T07:16:55.535Z,0
2017-01-23T07:17:55.122Z,0
2017-01-23T07:18:54.303Z,0
2017-01-23T07:19:54.707Z,5
2017-01-23T07:20:55.118Z,5
2017-01-23T07:21:55.107Z,5
2017-01-23T07:22:55.518Z,5
2017-01-23T07:23:54.686Z,5
2017-01-23T07:24:54.682Z,5
2017-01-23T07:25:55.095Z,5
2017-01-23T07:26:54.683Z,5
2017-01-23T07:27:55.079Z,5
2017-01-23T07:28:55.083Z,5
2017-01-23T07:29:55.484Z,5
2017-01-23T07:30:55.087Z,5
2017-01-23T07:31:54.252Z,5
2017-01-23T07:32:55.075Z,5
2017-01-23T07:33:55.067Z,5
2017-01-23T07:34:54.231Z,5
2017-01-23T07:35:55.047Z,5
2017-01-23T07:36:55.048Z,5
2017-01-23T07:37:54.631Z,10
2017-01-23T07:38:55.447Z,10
2017-01-23T07:39:54.623Z,10
2017-01-23T07:40:55.436Z,10
2017-01-23T07:41:55.020Z,10
2017-01-23T07:42:55.426Z,10
2017-01-23T07:43:55.008Z,10
2017-01-23T07:44:55.047Z,10
2017-01-23T07:45:54.601Z,10
2017-01-23T07:46:54.587Z,10
2017-01-23T07:47:54.593Z,10
2017-01-23T07:48:54.592Z,10
2017-01-23T07:49:54.176Z,10
2017-01-23T07:50:54.984Z,10
2017-01-23T07:51:54.167Z,15
2017-01-23T07:52:55.403Z,15
2017-01-23T07:53:54.560Z,15
2017-01-23T07:54:54.568Z,15
2017-01-23T07:55:54.972Z,15
2017-01-23T07:56:54.551Z,15
2017-01-23T07:57:54.552Z,15
2017-01-23T07:58:55.368Z,15
2017-01-23T07:59:55.364Z,15
2017-01-23T08:00:54.534Z,15
2017-01-23T08:01:54.939Z,15
2017-01-23T08:02:55.364Z,15
2017-01-23T08:03:54.932Z,15
2017-01-23T08:04:54.937Z,20
2017-01-23T08:05:54.956Z,20
2017-01-23T08:06:54.505Z,20
2017-01-23T08:07:55.332Z,20
2017-01-23T08:08:55.337Z,20
2017-01-23T08:09:54.916Z,20
2017-01-23T08:10:54.912Z,20
2017-01-23T08:11:54.501Z,20
2017-01-23T08:12:55.312Z,20
2017-01-23T08:13:54.900Z,20
2017-01-23T08:14:54.888Z,25
2017-01-23T08:15:54.888Z,25
2017-01-23T08:16:54.884Z,25
2017-01-23T08:17:54.469Z,25
2017-01-23T08:18:55.313Z,25
2017-01-23T08:19:54.457Z,25
2017-01-23T08:20:54.057Z,25
2017-01-23T08:21:53.633Z,25
2017-01-23T08:22:55.305Z,25
2017-01-23T08:23:55.273Z,25
2017-01-23T08:24:54.857Z,25
2017-01-23T08:25:54.853Z,25
2017-01-23T08:26:54.841Z,25
2017-01-23T08:27:54.837Z,25
2017-01-23T08:28:54.853Z,25
2017-01-23T08:29:54.850Z,25
2017-01-23T08:30:54.829Z,25
2017-01-23T08:31:54.826Z,25
2017-01-23T08:32:54.825Z,30
2017-01-23T08:33:54.410Z,30
2017-01-23T08:34:54.397Z,30
2017-01-23T08:35:55.221Z,30
2017-01-23T08:36:54.805Z,30
2017-01-23T08:37:54.837Z,30
2017-01-23T08:38:54.797Z,30
2017-01-23T08:39:54.793Z,30
2017-01-23T08:40:54.812Z,30
2017-01-23T08:41:54.380Z,30
2017-01-23T08:42:54.789Z,30
2017-01-23T08:43:54.368Z,30
2017-01-23T08:44:54.780Z,35
2017-01-23T08:45:55.185Z,35
2017-01-23T08:46:53.952Z,35
2017-01-23T08:47:54.353Z,35
2017-01-23T08:48:54.762Z,35
2017-01-23T08:49:54.760Z,40
2017-01-23T08:50:54.337Z,40
2017-01-23T08:51:54.737Z,40
2017-01-23T08:52:54.329Z,35
2017-01-23T08:53:55.160Z,35
2017-01-23T08:54:54.315Z,40
2017-01-23T08:55:54.756Z,40
2017-01-23T08:56:54.312Z,40
2017-01-23T08:57:54.720Z,40
2017-01-23T08:58:54.719Z,40
2017-01-23T08:59:53.896Z,40
2017-01-23T09:00:54.711Z,40
2017-01-23T09:01:55.120Z,40
2017-01-23T09:02:54.300Z,45
2017-01-23T09:03:54.696Z,45
2017-01-23T09:04:55.109Z,45
2017-01-23T09:05:54.688Z,45
2017-01-23T09:06:55.088Z,45
2017-01-23T09:07:54.672Z,45
2017-01-23T09:08:53.857Z,45
2017-01-23T09:09:54.684Z,45
2017-01-23T09:10:54.261Z,45
2017-01-23T09:11:54.664Z,50
2017-01-23T09:12:53.845Z,50
2017-01-23T09:13:55.065Z,50
2017-01-23T09:14:53.828Z,50
2017-01-23T09:15:54.673Z,50
2017-01-23T09:16:54.655Z,50
2017-01-23T09:17:54.229Z,50
2017-01-23T09:18:54.649Z,50
2017-01-23T09:19:54.637Z,50
2017-01-23T09:20:55.050Z,50
2017-01-23T09:21:54.214Z,55
2017-01-23T09:22:54.618Z,55
2017-01-23T09:23:54.630Z,50
2017-01-23T09:24:54.619Z,50
2017-01-23T09:25:55.019Z,55
2017-01-23T09:26:54.618Z,55
2017-01-23T09:27:54.199Z,55
2017-01-23T09:28:54.195Z,55
2017-01-23T09:29:54.621Z,55
2017-01-23T09:30:54.587Z,55
2017-01-23T09:31:53.771Z,55
2017-01-23T09:32:54.594Z,55
2017-01-23T09:33:54.171Z,55
2017-01-23T09:34:54.999Z,60
2017-01-23T09:35:54.579Z,60
2017-01-23T09:36:53.767Z,60
2017-01-23T09:37:53.748Z,60
2017-01-23T09:38:54.163Z,60
2017-01-23T09:39:54.563Z,60
2017-01-23T09:40:54.963Z,60
2017-01-23T09:41:54.556Z,60
2017-01-23T09:42:54.555Z,60
2017-01-23T09:43:54.963Z,60
2017-01-23T09:44:54.957Z,60
2017-01-23T09:45:54.535Z,60
2017-01-23T09:46:54.127Z,60
2017-01-23T09:47:54.535Z,60
2017-01-23T09:48:54.523Z,60
2017-01-23T09:49:54.940Z,60
2017-01-23T09:50:54.112Z,65
2017-01-23T09:51:54.516Z,65
2017-01-23T09:52:54.932Z,65
2017-01-23T09:53:53.696Z,65
2017-01-23T09:54:54.908Z,65
2017-01-23T09:55:54.504Z,65
2017-01-23T09:56:54.094Z,65
2017-01-23T09:57:54.089Z,65
2017-01-23T09:58:54.088Z,70
2017-01-23T09:59:54.492Z,70
2017-01-23T10:00:54.488Z,70
2017-01-23T10:01:54.888Z,70
2017-01-23T10:02:54.475Z,70
2017-01-23T10:03:53.649Z,70
2017-01-23T10:04:54.060Z,70
2017-01-23T10:05:54.465Z,75
2017-01-23T10:06:54.864Z,75
2017-01-23T10:07:53.636Z,75
2017-01-23T10:08:54.456Z,75
2017-01-23T10:09:54.865Z,75
2017-01-23T10:10:54.872Z,75
2017-01-23T10:11:54.464Z,70
2017-01-23T10:12:54.040Z,70
2017-01-23T10:13:54.032Z,70
2017-01-23T10:14:54.468Z,70
2017-01-23T10:15:54.853Z,70
2017-01-23T10:16:54.444Z,70
2017-01-23T10:17:54.025Z,70
2017-01-23T10:18:54.417Z,70
2017-01-23T10:19:53.612Z,70
2017-01-23T10:20:54.420Z,70
2017-01-23T10:21:54.417Z,70
2017-01-23T10:22:54.416Z,70
2017-01-23T10:23:54.413Z,70
2017-01-23T10:24:53.988Z,70
2017-01-23T10:25:54.397Z,70
2017-01-23T10:26:53.985Z,70
2017-01-23T10:27:54.405Z,70
2017-01-23T10:28:54.809Z,70
2017-01-23T10:29:53.977Z,70
2017-01-23T10:30:53.973Z,70
2017-01-23T10:31:54.385Z,75
2017-01-23T10:32:54.381Z,75
2017-01-23T10:33:54.797Z,75
2017-01-23T10:34:54.793Z,75
2017-01-23T10:35:54.373Z,80
2017-01-23T10:36:54.780Z,80
2017-01-23T10:37:53.949Z,85
2017-01-23T10:38:54.353Z,85
2017-01-23T10:39:54.362Z,85
2017-01-23T10:40:54.358Z,80
2017-01-23T10:41:53.946Z,80
2017-01-23T10:42:53.935Z,80
2017-01-23T10:43:54.337Z,75
2017-01-23T10:44:54.758Z,75
2017-01-23T10:45:54.342Z,75
2017-01-23T10:46:54.338Z,70
2017-01-23T10:47:54.330Z,75
2017-01-23T10:48:53.507Z,75
2017-01-23T10:49:53.511Z,75
2017-01-23T10:50:53.905Z,75
2017-01-23T10:51:53.490Z,75
2017-01-23T10:52:53.904Z,80
2017-01-23T10:53:54.302Z,80
2017-01-23T10:54:54.746Z,80
2017-01-23T10:55:54.299Z,80
2017-01-23T10:56:54.710Z,80
2017-01-23T10:57:54.307Z,85
2017-01-23T10:58:54.291Z,85
2017-01-23T10:59:53.879Z,85
2017-01-23T11:00:53.878Z,80
2017-01-23T11:01:54.283Z,80
2017-01-23T11:02:54.282Z,80
2017-01-23T11:03:53.862Z,80
2017-01-23T11:04:53.873Z,80
2017-01-23T11:05:54.291Z,80
2017-01-23T11:06:54.274Z,80
2017-01-23T11:07:54.263Z,80
2017-01-23T11:08:53.843Z,75
2017-01-23T11:09:54.267Z,75
2017-01-23T11:10:53.843Z,75
2017-01-23T11:11:53.431Z,80
2017-01-23T11:12:53.835Z,75
2017-01-23T11:13:54.251Z,80
2017-01-23T11:14:53.839Z,80
2017-01-23T11:15:54.667Z,80
2017-01-23T11:16:53.841Z,80
2017-01-23T11:17:54.231Z,80
2017-01-23T11:18:54.235Z,85
2017-01-23T11:19:53.819Z,80
2017-01-23T11:20:54.660Z,80
2017-01-23T11:21:53.399Z,80
2017-01-23T11:22:54.227Z,80
2017-01-23T11:23:54.643Z,85
2017-01-23T11:24:53.808Z,85
2017-01-23T11:25:53.787Z,85
2017-01-23T11:26:54.627Z,85
2017-01-23T11:27:54.203Z,85
2017-01-23T11:28:53.796Z,85
2017-01-23T11:29:54.220Z,85
2017-01-23T11:30:54.195Z,85
2017-01-23T11:31:53.779Z,85
2017-01-23T11:32:54.195Z,85
2017-01-23T11:33:54.608Z,90
2017-01-23T11:34:54.183Z,90
2017-01-23T11:35:54.188Z,90
2017-01-23T11:36:54.599Z,90
2017-01-23T11:37:53.768Z,90
2017-01-23T11:38:52.955Z,90
2017-01-23T11:39:54.584Z,90
2017-01-23T11:40:54.163Z,90
2017-01-23T11:41:53.344Z,90
2017-01-23T11:42:54.156Z,85
2017-01-23T11:43:54.575Z,85
2017-01-23T11:44:54.568Z,85
2017-01-23T11:45:53.744Z,85
2017-01-23T11:46:54.152Z,85
2017-01-23T11:47:54.148Z,85
2017-01-23T11:48:54.576Z,85
2017-01-23T11:49:53.736Z,80
2017-01-23T11:50:54.145Z,80
2017-01-23T11:51:54.140Z,80
2017-01-23T11:52:54.552Z,80
2017-01-23T11:53:53.725Z,80
2017-01-23T11:54:54.160Z,80
2017-01-23T11:55:53.722Z,80
2017-01-23T11:56:54.540Z,80
2017-01-23T11:57:54.528Z,85
2017-01-23T11:58:54.125Z,85
2017-01-23T11:59:54.117Z,85
2017-01-23T12:00:54.108Z,85
2017-01-23T12:01:54.120Z,90
2017-01-23T12:02:54.521Z,90
2017-01-23T12:03:54.109Z,90
2017-01-23T12:04:54.105Z,90
2017-01-23T12:05:53.685Z,90
2017-01-23T12:06:54.509Z,90
2017-01-23T12:07:53.293Z,90
2017-01-23T12:08:54.501Z,90
2017-01-23T12:09:53.273Z,90
2017-01-23T12:10:54.092Z,85
2017-01-23T12:11:54.085Z,85
2017-01-23T12:12:54.085Z,85
2017-01-23T12:13:54.481Z,85
2017-01-23T12:14:53.658Z,80
2017-01-23T12:15:54.082Z,80
2017-01-23T12:16:53.242Z,80
2017-01-23T12:17:54.473Z,80
2017-01-23T12:18:53.653Z,80
2017-01-23T12:19:53.241Z,80
2017-01-23T12:20:54.061Z,80
2017-01-23T12:21:53.658Z,85
2017-01-23T12:22:54.059Z,85
2017-01-23T12:23:54.055Z,85
2017-01-23T12:24:53.225Z,90
2017-01-23T12:25:53.642Z,90
2017-01-23T12:26:54.458Z,90
2017-01-23T12:27:54.034Z,90
2017-01-23T12:28:54.041Z,90
2017-01-23T12:29:53.638Z,90
2017-01-23T12:30:54.042Z,85
2017-01-23T12:31:54.442Z,85
2017-01-23T12:32:54.030Z,85
2017-01-23T12:33:54.430Z,85
2017-01-23T12:34:54.034Z,85
2017-01-23T12:35:53.194Z,85
2017-01-23T12:36:54.015Z,85
2017-01-23T12:37:54.010Z,85
2017-01-23T12:38:53.602Z,85
2017-01-23T12:39:54.037Z,85
2017-01-23T12:40:54.010Z,85
2017-01-23T12:41:53.619Z,85
2017-01-23T12:42:54.013Z,85
2017-01-23T12:43:54.011Z,85
2017-01-23T12:44:53.995Z,85
2017-01-23T12:45:54.403Z,85
2017-01-23T12:46:53.999Z,80
2017-01-23T12:47:54.398Z,80
2017-01-23T12:48:53.991Z,80
2017-01-23T12:49:54.399Z,80
2017-01-23T12:50:53.575Z,80
2017-01-23T12:51:53.179Z,80
2017-01-23T12:52:53.563Z,80
2017-01-23T12:53:53.558Z,75
2017-01-23T12:54:53.562Z,75
2017-01-23T12:55:53.559Z,75
2017-01-23T12:56:53.547Z,75
2017-01-23T12:57:53.569Z,75
2017-01-23T12:58:53.963Z,75
2017-01-23T12:59:53.543Z,70
2017-01-23T13:00:53.586Z,70
2017-01-23T13:01:53.547Z,70
2017-01-23T13:02:53.950Z,70
2017-01-23T13:03:53.951Z,70
2017-01-23T13:04:53.538Z,70
2017-01-23T13:05:53.123Z,70
2017-01-23T13:06:53.927Z,70
2017-01-23T13:07:54.358Z,70
2017-01-23T13:08:53.974Z,70
2017-01-23T13:09:53.939Z,70
2017-01-23T13:10:53.535Z,70
2017-01-23T13:11:53.511Z,70
2017-01-23T13:12:53.107Z,70
2017-01-23T13:13:54.343Z,70
2017-01-23T13:14:53.931Z,70
2017-01-23T13:15:53.920Z,70
2017-01-23T13:16:53.916Z,70
2017-01-23T13:17:54.332Z,70
2017-01-23T13:18:54.320Z,70
2017-01-23T13:19:53.916Z,70
2017-01-23T13:20:53.500Z,70
2017-01-23T13:21:53.927Z,70
2017-01-23T13:22:53.908Z,70
2017-01-23T13:23:54.304Z,70
2017-01-23T13:24:54.308Z,70
2017-01-23T13:25:54.308Z,70
2017-01-23T13:26:53.476Z,70
2017-01-23T13:27:53.928Z,70
2017-01-23T13:28:53.504Z,65
2017-01-23T13:29:53.062Z,65
2017-01-23T13:30:54.296Z,65
2017-01-23T13:31:53.880Z,65
2017-01-23T13:32:53.472Z,65
2017-01-23T13:33:54.316Z,65
2017-01-23T13:34:53.865Z,65
2017-01-23T13:35:53.464Z,65
2017-01-23T13:36:54.309Z,65
2017-01-23T13:37:53.864Z,65
2017-01-23T13:38:53.450Z,65
2017-01-23T13:39:53.865Z,65
2017-01-23T13:40:53.857Z,60
2017-01-23T13:41:53.440Z,60
2017-01-23T13:42:53.864Z,60
2017-01-23T13:43:53.844Z,60
2017-01-23T13:44:53.855Z,60
2017-01-23T13:45:54.248Z,60
2017-01-23T13:46:53.435Z,60
2017-01-23T13:47:53.840Z,60
2017-01-23T13:48:53.419Z,60
2017-01-23T13:49:53.819Z,60
2017-01-23T13:50:53.427Z,55
2017-01-23T13:51:53.007Z,55
2017-01-23T13:52:54.236Z,55
2017-01-23T13:53:53.815Z,55
2017-01-23T13:54:53.822Z,55
2017-01-23T13:55:53.402Z,55
2017-01-23T13:56:54.235Z,55
2017-01-23T13:57:54.234Z,50
2017-01-23T13:58:53.803Z,50
2017-01-23T13:59:54.206Z,50
2017-01-23T14:00:53.820Z,50
2017-01-23T14:01:53.382Z,50
2017-01-23T14:02:53.390Z,55
2017-01-23T14:03:53.790Z,55
2017-01-23T14:04:52.556Z,50
2017-01-23T14:05:54.206Z,50
2017-01-23T14:06:54.238Z,50
2017-01-23T14:07:53.834Z,50
2017-01-23T14:08:53.777Z,50
2017-01-23T14:09:53.790Z,50
2017-01-23T14:10:54.193Z,50
2017-01-23T14:11:53.792Z,50
2017-01-23T14:12:54.185Z,50
2017-01-23T14:13:53.765Z,50
2017-01-23T14:14:53.761Z,50
2017-01-23T14:15:53.348Z,50
2017-01-23T14:16:53.349Z,50
2017-01-23T14:17:53.759Z,50
2017-01-23T14:18:53.760Z,45
2017-01-23T14:19:54.155Z,45
2017-01-23T14:20:52.943Z,50
2017-01-23T14:21:54.161Z,50
2017-01-23T14:22:53.735Z,45
2017-01-23T14:23:53.739Z,45
2017-01-23T14:24:53.735Z,45
2017-01-23T14:25:54.142Z,45
2017-01-23T14:26:53.750Z,40
2017-01-23T14:27:53.316Z,40
2017-01-23T14:28:53.726Z,40
2017-01-23T14:29:53.722Z,40
2017-01-23T14:30:53.714Z,40
2017-01-23T14:31:54.129Z,40